Airfield :
LOGIN :

Register | Disclaimer

   EN    FR    IT 

 










Legend :    VFR   Marginal VFR   IFR   Intensive IFR   Very Intensive IFR
Visi :
Ceiling :
>= 8 km
>= 3000ft
5 to 8 km
1000 to 3000 ft
1500m to 5 km
500 to 1000 ft
800 to 1500m
200 to 500 ft
< 800m
< 200 ft
Symbols :   Thunderstorms  Fog  Heavy snow  Heavy precipitations  Wind > 20 kt
SIGMETs :     Misc.  Thunderstorms  Icing  Turbulence  Mountain Waves  Volcanic Ashes






- Airport Elevation : 463 ft
- IATA code : HME


DAUH - Oued Irara-Krim Belkacem

CURRENT METAR :
  • 240430Z 26002KT 8000 NSC 07/M03 Q1021

EXPIRED METARs :
  • 240400Z 25003KT 8000 NSC 07/M03 Q1021
  • 240330Z 30002KT 8000 NSC 08/M01 Q1021
  • 240300Z 00000KT 8000 NSC 08/M01 Q1021
  • 240230Z 36002KT 8000 NSC 08/M01 Q1021
  • 240200Z 32002KT 8000 NSC 08/M01 Q1021

TAF TAF DAUH
Valid from the 24 at 00:00 until the 25 at 00:00 UTC


232300Z 2400/2424 34006KT 8000 NSC
BECMG 2409/2412 04010KT



MET'MAP, your aeronautical weather chart ! - Copyright ORBIFLY December 2007 - Disclaimer

ORBIFLY MET'MAP TEAM :

Programming & Development : Alexandra Zaïnal
Concept & original design : Baudouin d'Aumeries
Assistance for programming : Marc-Olivier Méhu
Technical & hardware support : Manuel Goepfert

Contact : metmap@orbifly.com




SOURCES & CREDITS :

   NOAA